New Century, Kansas
Current Conditions -  °F | °C
As of 9:53 PM on Tuesday 27 Jan 2015 (Local Time) from KIXD Reporting Station
Clear Clear  
Wind Chill: 39°   Ceiling: Unl
Heat Index: 44°   Visibility: 10mi
Dew Point: 31°   Wind: 10mph
Humidity: 60%   Direction: 110°ESE
Pressure: 30.07"   Gusts: NA
Location:  38.81°N, 94.93°W
Report Text: KIXD 280353Z 11009KT 10SM CLR 07/M01 A3007 RMK AO2 SLP185 T00671006
Loading
Personal Weather Stations






























Interactive Weather Map New forecast layout! Learn more

10-Day Weather Forecast

Advertisements
Track Severe Weather on mobile